Airfield :
LOGIN :

Register | Disclaimer

   EN    FR    IT 

 










Legend :    VFR   Marginal VFR   IFR   Intensive IFR   Very Intensive IFR
Visi :
Ceiling :
>= 8 km
>= 3000ft
5 to 8 km
1000 to 3000 ft
1500m to 5 km
500 to 1000 ft
800 to 1500m
200 to 500 ft
< 800m
< 200 ft
Symbols :   Thunderstorms  Fog  Heavy snow  Heavy precipitations  Wind > 20 kt
SIGMETs :     Misc.  Thunderstorms  Icing  Turbulence  Mountain Waves  Volcanic Ashes






- Airport Elevation : 17 ft
- IATA code : GRQ


EHGG - Groningen Eelde

CURRENT METAR :
  • 021625Z AUTO 26016KT 220V300 9999 FEW027 SCT036 BKN044 09/03 Q1008 NOSIG

EXPIRED METARs :
  • 021555Z AUTO 26016KT 220V300 9999 FEW028 BKN033 BKN037 10/03 Q1008 NOSIG
  • 021525Z AUTO 26015KT 230V300 9999 FEW027 BKN038 OVC042 10/03 Q1008 NOSIG
  • 021455Z AUTO 26021KT 230V310 9999 FEW031 BKN044 10/02 Q1009 NOSIG
  • 021425Z AUTO 27016KT 230V300 9999 BKN028 BKN032 OVC039 10/04 Q1009 NOSIG
  • 021355Z AUTO 24019KT 9999 SCT030 BKN035 OVC040 10/03 Q1009 NOSIG

TAF TAF EHGG
Valid from the 02 at 12:00 until the 03 at 18:00 UTC


021114Z 0212/0318 25018G28KT 9999 BKN040
BECMG 0216/0219 28012KT
PROB40
TEMPO 0216/0302 6000 -SHRA -RADZ SCT020TCU
PROB30
TEMPO 0217/0221 4000 SHRA BKN012 SCT015CB
BECMG 0303/0306 25006KT
BECMG 0308/0311 29012KT



MET'MAP, your aeronautical weather chart ! - Copyright ORBIFLY December 2007 - Disclaimer

ORBIFLY MET'MAP TEAM :

Programming & Development : Alexandra Zaïnal
Concept & original design : Baudouin d'Aumeries
Assistance for programming : Marc-Olivier Méhu
Technical & hardware support : Manuel Goepfert

Contact : metmap@orbifly.com




SOURCES & CREDITS :

   NOAA